Saint Louis, Missouri
Traffic Map
Current Weather Conditions
Saint Louis, Missouri
Broken Clouds
Broken Clouds
53°
Feels Like: 53°
Wind Chill: 53° Ceiling: 1400
Heat Index: 53° Visibility: 10mi
Dew Point: 45° Wind: 16mph
Humidity: 74% Direction: 360° (N)
Pressure: 29.49in Gusts: 0mph
Raw Report DataKCPS 221853Z 36014KT 10SM BKN014 12/07 A2949 RMK AO2 SLP985 T01170072
Traffic Incident Summary
Active as of:
Severity:
Category:
InformationThere was an issue retrieving the traffic information for this location. Please try a different location or try again shortly.
Advertisements
Track Severe Weather on mobile